Time;durP1;ratioP1;P1;durP2;ratioP2;P2;SDS_P1;SDS_P2;PMS_P1;PMS_P2;Temp;Humidity;BMP_temperature;BMP_pressure;BME280_temperature;BME280_humidity;BME280_pressure;Samples;Min_cycle;Max_cycle;Signal;HPM_P1;HPM_P2
2023/06/06 00:01:14;;;;;;;;;;;;;;;21.47;29.86;98446.06;5014641;28;1196;-76
2023/06/06 00:03:41;;;;;;;;;;;;;;;21.53;29.99;98438.66;5019084;28;1012;-76
2023/06/06 00:06:07;;;;;;;;;;;;;;;21.41;30.15;98442.94;5018593;28;974;-77
2023/06/06 00:08:33;;;;;;;;;;;;;;;21.56;29.83;98449.13;5018861;28;1063;-76
2023/06/06 00:10:58;;;;;;;;;;;;;;;21.52;30.12;98451.22;5036220;28;968;-76
2023/06/06 00:13:27;;;;;;;;;;;;;;;21.30;30.07;98439.50;5018732;28;877;-76
2023/06/06 00:15:57;;;;;;;;;;;;;;;21.21;30.24;98439.22;5019842;28;1008;-76
2023/06/06 00:18:26;;;;;;;;;;;;;;;21.40;30.08;98441.34;4967192;28;1927;-76
2023/06/06 00:20:53;;;;;;;;;;;;;;;22.01;29.49;98435.22;5006956;28;1553;-76
2023/06/06 00:23:20;;;;;;;;;;;;;;;22.36;29.16;98430.03;5015094;28;1028;-76
2023/06/06 00:25:46;;;;;;;;;;;;;;;22.32;29.48;98435.78;5015772;28;973;-76
2023/06/06 00:28:12;;;;;;;;;;;;;;;22.08;29.78;98423.75;5015343;28;1020;-76
2023/06/06 00:30:38;;;;;;;;;;;;;;;21.96;29.81;98426.44;5015345;28;902;-76
2023/06/06 00:33:04;;;;;;;;;;;;;;;21.73;30.17;98430.16;5065118;28;914;-76
2023/06/06 00:35:29;;;;;;;;;;;;;;;21.51;30.47;98429.81;5038478;28;1299;-76
2023/06/06 00:37:55;;;;;;;;;;;;;;;21.43;31.01;98428.31;5038007;28;1918;-76
2023/06/06 00:40:21;;;;;;;;;;;;;;;21.65;30.72;98429.50;5054691;28;945;-76
2023/06/06 00:42:46;;;;;;;;;;;;;;;21.66;30.41;98419.78;5055061;28;958;-75
2023/06/06 00:45:12;;;;;;;;;;;;;;;21.50;30.85;98428.19;5021897;28;1252;-76
2023/06/06 00:47:38;;;;;;;;;;;;;;;21.55;30.71;98430.50;5021878;28;1203;-76
2023/06/06 00:50:04;;;;;;;;;;;;;;;21.48;30.55;98425.00;5071471;28;1135;-75
2023/06/06 00:52:31;;;;;;;;;;;;;;;21.60;30.44;98415.84;5079269;28;966;-76
2023/06/06 00:54:56;;;;;;;;;;;;;;;21.39;30.80;98424.75;5079274;28;867;-75
2023/06/06 00:57:23;;;;;;;;;;;;;;;21.40;30.48;98432.84;5062939;28;1411;-76
2023/06/06 00:59:49;;;;;;;;;;;;;;;21.55;30.37;98430.50;5046401;28;1232;-76
2023/06/06 01:02:17;;;;;;;;;;;;;;;21.33;30.89;98435.78;5079285;28;1154;-76
2023/06/06 01:04:43;;;;;;;;;;;;;;;21.26;30.95;98425.38;5063006;28;914;-76
2023/06/06 01:07:12;;;;;;;;;;;;;;;21.41;30.57;98428.78;5078957;28;1186;-76
2023/06/06 01:09:40;;;;;;;;;;;;;;;21.56;30.37;98432.94;5045958;28;1261;-76
2023/06/06 01:12:09;;;;;;;;;;;;;;;21.57;30.24;98433.72;5062510;28;971;-76
2023/06/06 01:14:37;;;;;;;;;;;;;;;21.69;29.88;98435.91;5061956;28;1304;-76
2023/06/06 01:17:03;;;;;;;;;;;;;;;21.60;30.10;98438.50;5074130;28;1044;-76
2023/06/06 01:19:29;;;;;;;;;;;;;;;21.71;29.79;98426.97;5057972;28;1891;-76
2023/06/06 01:21:55;;;;;;;;;;;;;;;21.57;30.01;98428.06;5057577;28;1093;-76
2023/06/06 01:24:21;;;;;;;;;;;;;;;21.31;30.74;98427.75;5057359;28;1351;-75
2023/06/06 01:26:48;;;;;;;;;;;;;;;21.67;29.89;98421.38;5058135;28;1125;-76
2023/06/06 01:29:17;;;;;;;;;;;;;;;21.28;30.35;98433.44;5057710;28;1142;-76
2023/06/06 01:31:45;;;;;;;;;;;;;;;21.73;30.05;98416.81;5057741;28;1346;-76
2023/06/06 01:34:13;;;;;;;;;;;;;;;22.36;29.85;98427.22;5041020;28;972;-75
2023/06/06 01:36:45;;;;;;;;;;;;;;;22.49;29.94;98413.16;5040797;28;1369;-77
2023/06/06 01:39:12;;;;;;;;;;;;;;;22.32;30.59;98421.63;5033877;28;1910;-76
2023/06/06 01:41:37;;;;;;;;;;;;;;;22.38;30.09;98412.59;5018128;28;950;-76
2023/06/06 01:44:05;;;;;;;;;;;;;;;21.89;30.63;98415.28;5017773;28;1205;-76
2023/06/06 01:46:31;;;;;;;;;;;;;;;21.60;31.24;98404.53;5002035;28;1103;-76
2023/06/06 01:48:57;;;;;;;;;;;;;;;21.70;30.96;98397.84;4961152;28;1143;-76
2023/06/06 01:51:25;;;;;;;;;;;;;;;21.44;31.31;98407.28;4959166;28;935;-75
2023/06/06 01:53:50;;;;;;;;;;;;;;;21.65;30.93;98401.19;4939553;29;1235;-76
2023/06/06 01:56:16;;;;;;;;;;;;;;;21.59;30.83;98402.94;4956005;28;987;-76
2023/06/06 01:58:42;;;;;;;;;;;;;;;21.44;31.42;98395.94;4955964;28;1910;-76
2023/06/06 02:01:08;;;;;;;;;;;;;;;21.55;30.96;98414.34;4956372;29;1221;-76
2023/06/06 02:03:34;;;;;;;;;;;;;;;21.82;30.18;98414.19;4940173;28;1053;-76
2023/06/06 02:06:01;;;;;;;;;;;;;;;21.88;30.53;98413.69;4959447;28;1200;-76
2023/06/06 02:08:27;;;;;;;;;;;;;;;21.53;30.79;98404.69;4955139;28;949;-76
2023/06/06 02:10:53;;;;;;;;;;;;;;;21.44;31.10;98407.28;4956104;28;955;-76
2023/06/06 02:13:19;;;;;;;;;;;;;;;21.44;31.17;98407.28;4955831;28;1047;-76
2023/06/06 02:15:46;;;;;;;;;;;;;;;21.64;30.63;98410.13;4956813;28;1032;-76
2023/06/06 02:18:11;;;;;;;;;;;;;;;21.73;30.58;98408.31;4955561;28;1911;-76
2023/06/06 02:20:37;;;;;;;;;;;;;;;21.66;30.66;98408.47;4955839;28;1170;-76
2023/06/06 02:23:02;;;;;;;;;;;;;;;21.52;30.72;98400.25;4955992;28;930;-76
2023/06/06 02:25:28;;;;;;;;;;;;;;;21.55;30.61;98407.84;4996553;28;1012;-76
2023/06/06 02:27:55;;;;;;;;;;;;;;;21.84;30.34;98400.38;5074027;28;925;-77
2023/06/06 02:30:22;;;;;;;;;;;;;;;21.61;30.73;98403.31;5060791;28;1238;-76
2023/06/06 02:32:50;;;;;;;;;;;;;;;21.44;30.83;98421.44;5060798;28;1371;-75
2023/06/06 02:35:18;;;;;;;;;;;;;;;21.22;31.36;98412.53;5060754;28;1281;-76
2023/06/06 02:37:44;;;;;;;;;;;;;;;21.35;31.12;98412.69;5060431;28;1989;-75
2023/06/06 02:40:12;;;;;;;;;;;;;;;21.57;30.51;98411.06;5043788;28;1202;-75
2023/06/06 02:42:40;;;;;;;;;;;;;;;21.46;30.89;98416.94;5040173;28;998;-76
2023/06/06 02:45:08;;;;;;;;;;;;;;;21.69;30.11;98412.44;5040155;28;1139;-76
2023/06/06 02:47:34;;;;;;;;;;;;;;;21.91;30.03;98412.78;5040233;28;948;-76
2023/06/06 02:50:00;;;;;;;;;;;;;;;21.48;30.80;98413.66;5040605;28;1257;-76
2023/06/06 02:52:28;;;;;;;;;;;;;;;21.19;31.29;98416.19;5057005;28;1047;-76
2023/06/06 02:54:54;;;;;;;;;;;;;;;21.55;30.56;98424.84;5023940;28;1220;-76
2023/06/06 02:57:21;;;;;;;;;;;;;;;21.84;29.83;98419.41;5040283;28;1105;-76
2023/06/06 02:59:47;;;;;;;;;;;;;;;21.82;29.83;98413.41;5023526;28;1914;-76
2023/06/06 03:02:15;;;;;;;;;;;;;;;21.72;30.14;98412.38;5040775;28;1131;-76
2023/06/06 03:04:43;;;;;;;;;;;;;;;21.76;29.81;98407.44;5023933;28;940;-76
2023/06/06 03:07:12;;;;;;;;;;;;;;;21.69;29.98;98416.06;5024294;28;908;-77
2023/06/06 03:09:38;;;;;;;;;;;;;;;21.70;29.68;98411.19;5023376;28;920;-77
2023/06/06 03:12:07;;;;;;;;;;;;;;;21.36;30.49;98422.81;4985110;28;940;-75
2023/06/06 03:14:32;;;;;;;;;;;;;;;21.97;30.18;98411.06;4961280;28;1573;-76
2023/06/06 03:16:58;;;;;;;;;;;;;;;22.63;29.70;98418.47;4977905;28;1239;-78
2023/06/06 03:19:26;;;;;;;;;;;;;;;22.68;29.90;98420.78;4969605;28;1915;-76
2023/06/06 03:21:53;;;;;;;;;;;;;;;21.96;31.09;98420.78;5000669;28;1070;-76
2023/06/06 03:24:19;;;;;;;;;;;;;;;21.92;31.02;98420.06;4968080;28;1250;-76
2023/06/06 03:26:46;;;;;;;;;;;;;;;21.62;31.68;98419.06;4984458;28;1269;-77
2023/06/06 03:29:15;;;;;;;;;;;;;;;21.83;31.06;98415.78;5000925;28;1032;-76
2023/06/06 03:31:41;;;;;;;;;;;;;;;21.48;31.82;98405.97;4999847;28;1537;-76
2023/06/06 03:34:07;;;;;;;;;;;;;;;21.84;30.86;98414.53;4969280;28;1932;-76
2023/06/06 03:36:35;;;;;;;;;;;;;;;21.97;30.86;98417.53;4981497;28;1152;-77
2023/06/06 03:39:03;;;;;;;;;;;;;;;21.90;30.83;98422.53;4980184;28;1980;-76
2023/06/06 03:41:30;;;;;;;;;;;;;;;21.43;31.62;98429.13;4980794;28;1363;-76
2023/06/06 03:43:58;;;;;;;;;;;;;;;21.39;31.95;98424.75;5014946;28;1199;-76
2023/06/06 03:46:24;;;;;;;;;;;;;;;21.54;31.53;98428.91;5035908;28;955;-76
2023/06/06 03:48:50;;;;;;;;;;;;;;;21.97;30.62;98426.03;5033962;28;1438;-77
2023/06/06 03:51:15;;;;;;;;;;;;;;;21.41;30.96;98382.69;5047908;28;1245;-77
2023/06/06 03:53:41;;;;;;;;;;;;;;;21.65;31.16;98429.50;5045822;28;1344;-76
2023/06/06 03:56:07;;;;;;;;;;;;;;;21.81;30.56;98435.25;5079256;28;1178;-76
2023/06/06 03:58:33;;;;;;;;;;;;;;;21.61;31.02;98425.97;5057167;28;1909;-75
2023/06/06 04:00:58;;;;;;;;;;;;;;;21.75;30.68;98422.81;5059332;28;1423;-76
2023/06/06 04:03:35;;;;;;;;;;;;;;;21.65;30.83;98417.38;5042406;28;1280;-76
2023/06/06 04:06:08;;;;;;;;;;;;;;;21.53;31.03;98427.31;5019774;28;1405;-76
2023/06/06 04:08:33;;;;;;;;;;;;;;;21.64;30.56;98422.25;4975167;28;1591;-76
2023/06/06 04:10:59;;;;;;;;;;;;;;;21.67;30.74;98429.88;5022727;28;1131;-76
2023/06/06 04:13:25;;;;;;;;;;;;;;;21.75;30.48;98424.84;5022000;28;1215;-77
2023/06/06 04:15:51;;;;;;;;;;;;;;;21.69;30.45;98430.22;5039007;28;1156;-77
2023/06/06 04:18:17;;;;;;;;;;;;;;;21.87;30.17;98423.41;5038377;28;1905;-76
2023/06/06 04:20:45;;;;;;;;;;;;;;;21.72;30.39;98428.56;5055185;28;1148;-76
2023/06/06 04:23:12;;;;;;;;;;;;;;;21.88;29.96;98430.69;5036975;28;1587;-77
2023/06/06 04:25:37;;;;;;;;;;;;;;;21.71;30.43;98426.97;5038694;28;1537;-75
2023/06/06 04:28:03;;;;;;;;;;;;;;;21.76;30.01;98430.09;5038710;28;1235;-76
2023/06/06 04:30:32;;;;;;;;;;;;;;;21.72;30.35;98432.22;5018877;28;1475;-77
2023/06/06 04:32:58;;;;;;;;;;;;;;;21.93;29.96;98433.00;5027281;28;1263;-76
2023/06/06 04:35:26;;;;;;;;;;;;;;;21.74;30.29;98426.91;5038768;28;1195;-76
2023/06/06 04:37:53;;;;;;;;;;;;;;;21.89;30.03;98438.72;5073253;28;1917;-76
2023/06/06 04:40:21;;;;;;;;;;;;;;;21.57;30.42;98428.84;5053753;28;1328;-77
2023/06/06 04:42:47;;;;;;;;;;;;;;;21.55;30.50;98439.00;5058508;28;1554;-76
2023/06/06 04:45:15;;;;;;;;;;;;;;;21.81;29.97;98425.94;5052278;28;1254;-76
2023/06/06 04:47:44;;;;;;;;;;;;;;;21.87;29.78;98429.09;5038563;28;1330;-76
2023/06/06 04:50:10;;;;;;;;;;;;;;;21.74;30.02;98426.09;5000493;28;1179;-78
2023/06/06 04:52:36;;;;;;;;;;;;;;;21.66;30.25;98433.94;4999016;28;1166;-77
2023/06/06 04:55:03;;;;;;;;;;;;;;;21.44;30.48;98452.56;5015174;28;1146;-77
2023/06/06 04:57:28;;;;;;;;;;;;;;;21.89;29.99;98443.59;5025963;28;1400;-76
2023/06/06 04:59:54;;;;;;;;;;;;;;;22.51;30.01;98450.38;5015083;28;1914;-77
2023/06/06 05:02:23;;;;;;;;;;;;;;;22.45;30.73;98446.47;5015724;28;1152;-77
2023/06/06 05:04:52;;;;;;;;;;;;;;;22.27;31.28;98444.81;4999329;28;1217;-77
2023/06/06 05:07:18;;;;;;;;;;;;;;;21.88;31.93;98436.34;5015798;28;930;-77
2023/06/06 05:09:43;;;;;;;;;;;;;;;21.83;31.54;98441.28;5015695;28;898;-77
2023/06/06 05:12:09;;;;;;;;;;;;;;;21.93;31.49;98444.34;4999392;28;1563;-77
2023/06/06 05:14:34;;;;;;;;;;;;;;;21.92;31.46;98437.06;4995732;28;990;-76
2023/06/06 05:17:00;;;;;;;;;;;;;;;21.69;31.67;98435.91;4979789;28;1117;-76
2023/06/06 05:19:26;;;;;;;;;;;;;;;21.94;31.17;98429.72;5014446;28;1981;-77
2023/06/06 05:21:52;;;;;;;;;;;;;;;21.72;31.61;98440.69;5001757;28;1153;-76
2023/06/06 05:24:17;;;;;;;;;;;;;;;21.76;31.45;98435.78;5017960;28;1279;-76
2023/06/06 05:26:43;;;;;;;;;;;;;;;21.95;31.07;98436.19;5034075;28;1583;-76
2023/06/06 05:29:09;;;;;;;;;;;;;;;21.58;31.92;98453.09;5017784;28;1006;-76
2023/06/06 05:31:35;;;;;;;;;;;;;;;21.84;31.67;98403.22;5017116;28;1023;-69
2023/06/06 05:34:00;;;;;;;;;;;;;;;22.69;31.66;98450.75;5039642;28;2082;-69
2023/06/06 05:36:26;;;;;;;;;;;;;;;22.90;31.66;98445.81;5037910;28;2001;-69
2023/06/06 05:38:52;;;;;;;;;;;;;;;23.02;31.89;98450.78;5035011;28;1914;-69
2023/06/06 05:41:20;;;;;;;;;;;;;;;22.86;32.24;98449.53;5035951;28;923;-69
2023/06/06 05:43:46;;;;;;;;;;;;;;;23.10;32.01;98455.03;5036480;28;1006;-68
2023/06/06 05:46:12;;;;;;;;;;;;;;;23.12;32.45;98461.06;5053059;28;1011;-69
2023/06/06 05:48:38;;;;;;;;;;;;;;;23.34;31.88;98447.13;5036612;28;1085;-69
2023/06/06 05:51:04;;;;;;;;;;;;;;;22.94;32.96;98455.03;5049339;28;1930;-69
2023/06/06 05:53:30;;;;;;;;;;;;;;;23.38;32.19;98454.28;5055406;28;1083;-73
2023/06/06 05:55:55;;;;;;;;;;;;;;;23.13;32.76;98459.81;5054561;28;1129;-70
2023/06/06 05:58:21;;;;;;;;;;;;;;;23.07;32.82;98464.44;5054189;28;1991;-69
2023/06/06 06:00:47;;;;;;;;;;;;;;;23.15;33.07;98460.16;5052217;28;1591;-74
2023/06/06 06:03:12;;;;;;;;;;;;;;;21.55;36.10;98470.16;5019480;28;1190;-69
2023/06/06 06:05:38;;;;;;;;;;;;;;;22.16;35.11;98469.75;5039612;28;1448;-71
2023/06/06 06:08:04;;;;;;;;;;;;;;;22.34;34.59;98469.38;5040248;28;1054;-70
2023/06/06 06:10:33;;;;;;;;;;;;;;;22.04;34.90;98467.56;5052550;28;1703;-70
2023/06/06 06:12:58;;;;;;;;;;;;;;;22.29;34.21;98462.19;5048285;28;1898;-70
2023/06/06 06:15:24;;;;;;;;;;;;;;;22.42;33.99;98465.13;5056352;28;1779;-70
2023/06/06 06:17:50;;;;;;;;;;;;;;;22.56;33.59;98464.81;5040941;28;1978;-70
2023/06/06 06:20:16;;;;;;;;;;;;;;;22.52;33.50;98457.63;5063992;28;1083;-71
2023/06/06 06:22:42;;;;;;;;;;;;;;;22.25;34.33;98463.50;5079205;28;859;-70
2023/06/06 06:25:13;;;;;;;;;;;;;;;22.30;34.20;98460.94;5077903;28;1040;-70
2023/06/06 06:27:40;;;;;;;;;;;;;;;22.68;33.47;98466.16;5075832;28;1740;-70
2023/06/06 06:30:05;;;;;;;;;;;;;;;22.63;33.32;98469.53;5077735;28;1580;-70
2023/06/06 06:32:32;;;;;;;;;;;;;;;22.46;33.72;98468.69;5078272;28;908;-70
2023/06/06 06:34:57;;;;;;;;;;;;;;;22.57;33.55;98471.28;5077183;28;2410;-70
2023/06/06 06:37:23;;;;;;;;;;;;;;;22.68;33.53;98459.69;5066655;28;1497;-70
2023/06/06 06:39:50;;;;;;;;;;;;;;;22.72;33.34;98469.72;5069266;28;1979;-70
2023/06/06 06:42:15;;;;;;;;;;;;;;;22.71;33.35;98470.97;5078805;28;1031;-70
2023/06/06 06:44:53;;;;;;;;;;;;;;;22.82;33.07;98473.53;5057226;28;1591;-70
2023/06/06 06:47:19;;;;;;;;;;;;;;;22.72;33.08;98481.06;5058911;28;1038;-71
2023/06/06 06:49:45;;;;;;;;;;;;;;;22.32;34.04;98471.84;5078775;28;968;-70
2023/06/06 06:52:11;;;;;;;;;;;;;;;22.51;33.69;98467.38;5072575;28;2087;-70
2023/06/06 06:54:44;;;;;;;;;;;;;;;22.34;33.49;98470.19;5056790;28;1709;-70
2023/06/06 06:57:10;;;;;;;;;;;;;;;22.59;33.29;98475.28;5058140;28;1050;-70
2023/06/06 06:59:36;;;;;;;;;;;;;;;22.67;32.97;98475.91;5056820;28;1988;-70
2023/06/06 07:02:02;;;;;;;;;;;;;;;22.67;32.90;98475.91;5060250;28;1908;-70
2023/06/06 07:04:28;;;;;;;;;;;;;;;22.36;33.46;98470.53;5076779;28;2161;-70
2023/06/06 07:06:55;;;;;;;;;;;;;;;22.50;32.94;98477.13;5095356;28;1010;-71
2023/06/06 07:09:21;;;;;;;;;;;;;;;22.58;33.08;98478.56;5062861;28;1785;-70
2023/06/06 07:11:46;;;;;;;;;;;;;;;22.51;33.09;98473.06;5075627;28;1113;-70
2023/06/06 07:14:12;;;;;;;;;;;;;;;22.88;32.40;98469.75;5058920;28;1058;-71
2023/06/06 07:16:37;;;;;;;;;;;;;;;22.99;32.23;98472.31;5069308;28;1583;-71
2023/06/06 07:19:03;;;;;;;;;;;;;;;23.11;31.95;98477.31;5039540;28;1931;-71
2023/06/06 07:21:28;;;;;;;;;;;;;;;22.85;32.39;98479.13;5069153;28;1782;-71
2023/06/06 07:23:55;;;;;;;;;;;;;;;22.75;32.84;98477.34;5074558;28;1120;-70
2023/06/06 07:26:21;;;;;;;;;;;;;;;22.18;33.65;98483.53;5042677;28;1460;-70
2023/06/06 07:28:49;;;;;;;;;;;;;;;21.94;34.05;98502.59;5059201;28;921;-70
2023/06/06 07:31:15;;;;;;;;;;;;;;;22.62;33.17;98497.09;5058956;28;1121;-77
2023/06/06 07:33:40;;;;;;;;;;;;;;;22.93;32.16;98498.84;5075726;28;1049;-70
2023/06/06 07:36:07;;;;;;;;;;;;;;;22.90;32.23;98497.72;5075471;28;938;-70
2023/06/06 07:38:32;;;;;;;;;;;;;;;22.93;32.28;98493.16;5058944;28;2177;-70
2023/06/06 07:40:58;;;;;;;;;;;;;;;23.04;31.98;98488.03;5037862;28;1706;-70
2023/06/06 07:43:23;;;;;;;;;;;;;;;23.38;31.70;98491.22;5064568;28;1965;-76
2023/06/06 07:45:50;;;;;;;;;;;;;;;22.99;31.99;98486.50;5076134;28;1836;-71
2023/06/06 07:48:15;;;;;;;;;;;;;;;22.98;32.01;98481.28;5076394;28;913;-70
2023/06/06 07:50:41;;;;;;;;;;;;;;;23.67;31.35;98484.78;5076667;28;2154;-79
2023/06/06 07:53:07;;;;;;;;;;;;;;;23.71;31.33;98479.81;5072178;28;1700;-73
2023/06/06 07:55:32;;;;;;;;;;;;;;;23.83;31.03;98492.50;5093862;28;1020;-73
2023/06/06 07:57:58;;;;;;;;;;;;;;;23.98;30.69;98492.88;5076686;28;1979;-73
2023/06/06 08:00:23;;;;;;;;;;;;;;;23.88;30.62;98484.22;5077851;28;1117;-75
2023/06/06 08:02:49;;;;;;;;;;;;;;;23.97;30.36;98496.97;5076703;28;948;-72
2023/06/06 08:05:17;;;;;;;;;;;;;;;23.84;30.35;98488.41;5077687;28;894;-69
2023/06/06 08:07:44;;;;;;;;;;;;;;;23.51;30.70;98494.13;5075378;28;1066;-70
2023/06/06 08:10:10;;;;;;;;;;;;;;;23.42;30.71;98484.66;5076630;28;2767;-69
2023/06/06 08:12:35;;;;;;;;;;;;;;;23.24;30.96;98479.44;5076246;28;1027;-69
2023/06/06 08:15:02;;;;;;;;;;;;;;;23.53;30.07;98488.00;5072826;28;1282;-70
2023/06/06 08:17:27;;;;;;;;;;;;;;;23.55;30.25;98488.34;5096982;28;1042;-69
2023/06/06 08:19:53;;;;;;;;;;;;;;;23.25;30.59;98481.81;5100228;28;1981;-69
2023/06/06 08:22:20;;;;;;;;;;;;;;;23.16;30.74;98481.66;5099054;28;1309;-70
2023/06/06 08:24:45;;;;;;;;;;;;;;;23.32;30.40;98486.53;5098868;28;1887;-76
2023/06/06 08:27:11;;;;;;;;;;;;;;;23.26;30.22;98489.09;5074071;28;2269;-77
2023/06/06 08:29:37;;;;;;;;;;;;;;;22.91;30.64;98492.84;5022621;28;1593;-78
2023/06/06 08:32:04;;;;;;;;;;;;;;;23.21;30.04;98485.97;5061229;28;1696;-77
2023/06/06 08:34:29;;;;;;;;;;;;;;;22.97;30.10;98491.06;5054535;28;1809;-77
2023/06/06 08:36:55;;;;;;;;;;;;;;;22.97;30.15;98488.22;5038174;28;1308;-78
2023/06/06 08:39:21;;;;;;;;;;;;;;;23.21;29.47;98488.81;5037807;28;1898;-75
2023/06/06 08:41:50;;;;;;;;;;;;;;;22.90;30.09;98488.38;5034188;28;1000;-79
2023/06/06 08:44:17;;;;;;;;;;;;;;;23.10;29.70;98480.56;5050579;28;958;-75
2023/06/06 08:46:42;;;;;;;;;;;;;;;23.03;29.71;98480.75;5050773;28;1054;-75
2023/06/06 08:49:08;;;;;;;;;;;;;;;22.96;29.77;98467.56;5051947;28;1635;-75
2023/06/06 08:51:34;;;;;;;;;;;;;;;23.01;29.65;98471.91;5013741;28;1046;-76
2023/06/06 08:54:00;;;;;;;;;;;;;;;22.70;30.26;98480.72;4981216;28;1214;-76
2023/06/06 08:56:26;;;;;;;;;;;;;;;22.66;29.95;98471.50;5013778;28;1038;-75
2023/06/06 08:58:52;;;;;;;;;;;;;;;22.56;29.99;98470.50;5013758;28;1987;-76
2023/06/06 09:01:18;;;;;;;;;;;;;;;22.43;30.15;98463.09;4997660;28;1001;-75
2023/06/06 09:03:43;;;;;;;;;;;;;;;22.46;30.24;98453.72;4997449;28;997;-76
2023/06/06 09:06:10;;;;;;;;;;;;;;;22.55;29.99;98468.91;5013620;28;946;-76
2023/06/06 09:08:35;;;;;;;;;;;;;;;22.43;29.78;98465.94;4997613;28;953;-76
2023/06/06 09:11:01;;;;;;;;;;;;;;;22.54;29.70;98466.50;4997713;28;919;-76
2023/06/06 09:13:26;;;;;;;;;;;;;;;22.53;29.63;98464.88;5029177;28;1012;-76
2023/06/06 09:15:53;;;;;;;;;;;;;;;22.47;30.00;98467.47;5033878;28;1076;-76
2023/06/06 09:18:19;;;;;;;;;;;;;;;22.63;29.63;98469.53;5033654;28;1991;-75
2023/06/06 09:20:48;;;;;;;;;;;;;;;22.29;30.13;98465.03;5000511;28;1117;-77
2023/06/06 09:23:14;;;;;;;;;;;;;;;22.51;29.60;98473.06;5048945;28;1259;-75
2023/06/06 09:25:42;;;;;;;;;;;;;;;22.10;30.16;98465.81;5077692;28;1563;-76
2023/06/06 09:28:07;;;;;;;;;;;;;;;22.27;30.23;98466.69;5078198;28;950;-76
2023/06/06 09:30:35;;;;;;;;;;;;;;;22.25;29.82;98464.31;5078382;28;894;-76
2023/06/06 09:33:02;;;;;;;;;;;;;;;22.64;29.54;98454.13;5095502;28;1570;-67
2023/06/06 09:35:34;;;;;;;;;;;;;;;22.61;29.84;98452.94;5077018;28;1467;-68
2023/06/06 09:38:20;;;;;;;;;;;;;;;22.97;29.17;98454.97;5095391;28;1973;-75
2023/06/06 09:40:51;;;;;;;;;;;;;;;22.80;29.33;98451.28;5079264;28;1115;-76
2023/06/06 09:43:23;;;;;;;;;;;;;;;22.66;29.74;98453.66;5061585;28;941;-76
2023/06/06 09:45:54;;;;;;;;;;;;;;;22.62;29.46;98459.41;5045553;28;1151;-77
2023/06/06 09:48:23;;;;;;;;;;;;;;;22.62;29.62;98462.25;5045833;28;1470;-77
2023/06/06 09:50:49;;;;;;;;;;;;;;;22.29;30.07;98461.41;5062141;28;941;-76
2023/06/06 09:53:15;;;;;;;;;;;;;;;22.10;30.14;98460.16;5040489;28;1072;-77
2023/06/06 09:55:41;;;;;;;;;;;;;;;22.32;29.92;98449.16;5040972;28;1170;-76
2023/06/06 09:58:07;;;;;;;;;;;;;;;22.40;29.58;98461.97;5023787;28;1922;-77
2023/06/06 10:00:37;;;;;;;;;;;;;;;22.12;30.20;98451.22;5024172;28;955;-76
2023/06/06 10:03:04;;;;;;;;;;;;;;;22.25;29.70;98461.47;5040518;28;1145;-76
2023/06/06 10:05:30;;;;;;;;;;;;;;;22.32;29.65;98461.31;5040620;28;1387;-76
2023/06/06 10:07:56;;;;;;;;;;;;;;;22.45;29.30;98466.31;5023835;28;1505;-77
2023/06/06 10:10:22;;;;;;;;;;;;;;;22.52;29.17;98454.78;5040597;28;1155;-77
2023/06/06 10:12:47;;;;;;;;;;;;;;;22.44;29.36;98465.50;5031284;28;1130;-76
2023/06/06 10:15:13;;;;;;;;;;;;;;;22.56;29.10;98458.34;5075453;28;2028;-76
2023/06/06 10:17:42;;;;;;;;;;;;;;;22.30;29.48;98463.78;5043893;28;933;-76
2023/06/06 10:20:10;;;;;;;;;;;;;;;22.55;29.00;98456.75;5059938;28;1945;-77
2023/06/06 10:22:35;;;;;;;;;;;;;;;22.21;29.48;98452.25;5076950;28;952;-77
2023/06/06 10:25:02;;;;;;;;;;;;;;;22.63;28.92;98458.19;5093501;28;1009;-76
2023/06/06 10:27:29;;;;;;;;;;;;;;;22.28;29.72;98457.78;5063757;28;1632;-76
2023/06/06 10:30:18;;;;;;;;;;;;;;;22.12;29.59;98446.34;5081132;28;1024;-76
2023/06/06 10:32:44;;;;;;;;;;;;;;;22.10;29.82;98448.81;5016898;28;1038;-76
2023/06/06 10:35:10;;;;;;;;;;;;;;;22.30;29.35;98441.09;5016430;28;1258;-76
2023/06/06 10:37:38;;;;;;;;;;;;;;;22.36;29.32;98442.19;5000505;28;1051;-75
2023/06/06 10:40:09;;;;;;;;;;;;;;;22.17;29.37;98442.22;5000197;28;1910;-76
2023/06/06 10:42:44;;;;;;;;;;;;;;;22.11;29.55;98433.44;5016556;28;896;-77
2023/06/06 10:45:09;;;;;;;;;;;;;;;22.36;29.20;98439.34;5016229;28;971;-76
2023/06/06 10:47:40;;;;;;;;;;;;;;;22.29;29.32;98442.34;5016393;28;1022;-76
2023/06/06 10:50:08;;;;;;;;;;;;;;;22.36;29.45;98439.34;5015633;28;1113;-76
2023/06/06 10:52:40;;;;;;;;;;;;;;;22.33;29.38;98428.91;5016439;28;965;-76
2023/06/06 10:55:15;;;;;;;;;;;;;;;22.07;29.46;98439.16;4996595;28;1031;-76
2023/06/06 10:57:48;;;;;;;;;;;;;;;21.99;29.91;98431.25;4996411;28;1036;-77
2023/06/06 11:00:15;;;;;;;;;;;;;;;22.34;29.10;98424.81;4996660;28;1034;-76
2023/06/06 11:02:40;;;;;;;;;;;;;;;22.26;29.44;98429.03;4996642;28;1029;-76
2023/06/06 11:05:07;;;;;;;;;;;;;;;21.97;29.71;98428.06;4996408;28;965;-77
2023/06/06 11:07:33;;;;;;;;;;;;;;;22.07;29.63;98427.84;4996624;28;996;-76
2023/06/06 11:09:58;;;;;;;;;;;;;;;22.16;29.35;98429.28;5032263;28;981;-77
2023/06/06 11:12:26;;;;;;;;;;;;;;;21.88;30.09;98425.00;5055930;28;979;-76
2023/06/06 11:14:55;;;;;;;;;;;;;;;22.18;29.43;98424.78;5039027;28;1107;-76
2023/06/06 11:17:24;;;;;;;;;;;;;;;22.15;29.50;98428.50;5055619;28;1020;-75
2023/06/06 11:19:50;;;;;;;;;;;;;;;22.31;29.28;98422.84;5039012;28;1977;-77
2023/06/06 11:22:20;;;;;;;;;;;;;;;22.08;29.36;98423.75;5035997;28;979;-76
2023/06/06 11:24:45;;;;;;;;;;;;;;;22.12;29.29;98428.56;5019206;28;1134;-76
2023/06/06 11:27:11;;;;;;;;;;;;;;;22.12;29.22;98423.69;5072451;28;1581;-76
2023/06/06 11:29:37;;;;;;;;;;;;;;;21.99;29.51;98425.56;5098430;28;969;-76
2023/06/06 11:32:03;;;;;;;;;;;;;;;22.04;29.73;98427.91;5097929;28;894;-76
2023/06/06 11:34:32;;;;;;;;;;;;;;;22.00;29.58;98424.34;5097686;28;884;-76
2023/06/06 11:36:58;;;;;;;;;;;;;;;21.75;30.07;98422.03;5075113;28;1065;-76
2023/06/06 11:39:25;;;;;;;;;;;;;;;22.06;29.46;98419.75;5038821;28;1910;-76
2023/06/06 11:41:51;;;;;;;;;;;;;;;22.14;29.25;98432.56;5055040;28;1007;-76
2023/06/06 11:44:17;;;;;;;;;;;;;;;22.08;29.29;98428.63;5055242;28;966;-76
2023/06/06 11:46:48;;;;;;;;;;;;;;;22.11;29.48;98444.78;5055000;28;1111;-76
2023/06/06 11:49:15;;;;;;;;;;;;;;;22.10;29.35;98428.97;5054787;28;1080;-76
2023/06/06 11:51:41;;;;;;;;;;;;;;;22.08;29.15;98417.28;5054922;28;1019;-76
2023/06/06 11:54:11;;;;;;;;;;;;;;;22.01;29.62;98423.09;5074853;28;1002;-76
2023/06/06 11:56:36;;;;;;;;;;;;;;;21.97;29.48;98423.19;5075141;28;1076;-75
2023/06/06 11:59:02;;;;;;;;;;;;;;;22.01;29.44;98428.75;5074779;28;1911;-76
2023/06/06 12:01:27;;;;;;;;;;;;;;;22.16;29.31;98429.28;5074635;28;1022;-76
2023/06/06 12:03:53;;;;;;;;;;;;;;;21.94;29.39;98426.88;5057994;28;966;-77
2023/06/06 12:06:20;;;;;;;;;;;;;;;22.07;29.27;98421.34;5074313;28;1307;-75
2023/06/06 12:08:46;;;;;;;;;;;;;;;22.07;29.10;98415.66;5057919;28;1025;-76
2023/06/06 12:11:21;;;;;;;;;;;;;;;22.02;29.46;98402.84;5058430;28;971;-77
2023/06/06 12:13:47;;;;;;;;;;;;;;;22.00;29.31;98416.63;5043003;28;2439;-77
2023/06/06 12:16:12;;;;;;;;;;;;;;;21.79;29.74;98417.09;5065386;28;2024;-76
2023/06/06 12:18:50;;;;;;;;;;;;;;;22.02;29.24;98402.03;5057423;28;1983;-77
2023/06/06 12:21:16;;;;;;;;;;;;;;;22.14;29.00;98409.09;5017911;28;1855;-76
2023/06/06 12:23:43;;;;;;;;;;;;;;;22.00;29.42;98410.16;5054287;28;981;-77
2023/06/06 12:26:11;;;;;;;;;;;;;;;21.91;29.63;98402.25;5021755;28;937;-76
2023/06/06 12:28:53;;;;;;;;;;;;;;;22.09;29.33;98405.50;5021596;28;1096;-77
2023/06/06 12:31:19;;;;;;;;;;;;;;;21.83;29.69;98395.97;5037305;28;1322;-77
2023/06/06 12:33:45;;;;;;;;;;;;;;;21.85;29.50;98390.63;5054614;28;979;-76
2023/06/06 12:36:15;;;;;;;;;;;;;;;22.01;29.40;98391.94;5054287;28;1278;-77
2023/06/06 12:38:41;;;;;;;;;;;;;;;22.04;29.38;98388.22;5054693;28;1973;-77
2023/06/06 12:41:06;;;;;;;;;;;;;;;21.97;29.44;98383.53;5037981;28;1068;-76
2023/06/06 12:43:32;;;;;;;;;;;;;;;22.22;29.03;98382.97;5053765;28;2514;-77
2023/06/06 12:45:57;;;;;;;;;;;;;;;22.25;28.82;98381.31;5019652;28;1612;-76
2023/06/06 12:48:25;;;;;;;;;;;;;;;22.04;29.37;98388.22;5014236;28;1369;-76
2023/06/06 12:50:51;;;;;;;;;;;;;;;21.91;29.55;98384.47;4982255;28;952;-76
2023/06/06 12:53:19;;;;;;;;;;;;;;;21.95;29.48;98385.97;5051134;28;2067;-76
2023/06/06 12:55:45;;;;;;;;;;;;;;;21.93;29.49;98370.66;5057095;28;960;-77
2023/06/06 12:58:11;;;;;;;;;;;;;;;22.32;28.99;98364.91;5073877;28;1976;-77